sensor_id;sensor_type;location;lat;lon;timestamp;pressure;altitude;pressure_sealevel;temperature;humidity
60886;BME280;46736;41.654;-8.438;2022-08-20T00:00:00;100572.78;;;22.00;57.10
60886;BME280;46736;41.654;-8.438;2022-08-20T00:02:01;100574.38;;;22.01;56.65
60886;BME280;46736;41.654;-8.438;2022-08-20T00:04:02;100571.28;;;21.94;55.95
60886;BME280;46736;41.654;-8.438;2022-08-20T00:06:10;100574.03;;;21.85;56.13
60886;BME280;46736;41.654;-8.438;2022-08-20T00:08:12;100577.88;;;21.84;55.92
60886;BME280;46736;41.654;-8.438;2022-08-20T00:10:13;100577.72;;;21.90;57.17
60886;BME280;46736;41.654;-8.438;2022-08-20T00:12:16;100574.97;;;21.81;57.68
60886;BME280;46736;41.654;-8.438;2022-08-20T00:14:17;100570.47;;;21.85;58.24
60886;BME280;46736;41.654;-8.438;2022-08-20T00:16:19;100572.53;;;21.79;58.25
60886;BME280;46736;41.654;-8.438;2022-08-20T00:18:22;100574.47;;;21.79;58.71
60886;BME280;46736;41.654;-8.438;2022-08-20T00:20:26;100575.91;;;21.76;58.61
60886;BME280;46736;41.654;-8.438;2022-08-20T00:22:28;100568.97;;;21.70;58.15
60886;BME280;46736;41.654;-8.438;2022-08-20T00:24:29;100567.81;;;21.54;58.15
60886;BME280;46736;41.654;-8.438;2022-08-20T00:26:30;100558.88;;;21.39;58.84
60886;BME280;46736;41.654;-8.438;2022-08-20T00:28:30;100561.88;;;21.29;59.14
60886;BME280;46736;41.654;-8.438;2022-08-20T00:30:33;100565.88;;;21.23;59.60
60886;BME280;46736;41.654;-8.438;2022-08-20T00:32:46;100551.53;;;21.17;59.98
60886;BME280;46736;41.654;-8.438;2022-08-20T00:34:47;100575.50;;;21.20;59.89
60886;BME280;46736;41.654;-8.438;2022-08-20T00:36:48;100569.91;;;21.26;59.59
60886;BME280;46736;41.654;-8.438;2022-08-20T00:38:49;100557.34;;;21.25;59.57
60886;BME280;46736;41.654;-8.438;2022-08-20T00:40:54;100551.41;;;21.23;59.46
60886;BME280;46736;41.654;-8.438;2022-08-20T00:42:58;100565.75;;;21.28;60.15
60886;BME280;46736;41.654;-8.438;2022-08-20T00:44:59;100562.78;;;21.16;60.52
60886;BME280;46736;41.654;-8.438;2022-08-20T00:47:00;100571.34;;;21.23;60.26
60886;BME280;46736;41.654;-8.438;2022-08-20T00:49:03;100566.03;;;21.27;60.57
60886;BME280;46736;41.654;-8.438;2022-08-20T00:51:11;100549.28;;;21.19;60.62
60886;BME280;46736;41.654;-8.438;2022-08-20T00:53:14;100562.19;;;21.28;61.29
60886;BME280;46736;41.654;-8.438;2022-08-20T00:55:16;100569.09;;;21.25;61.78
60886;BME280;46736;41.654;-8.438;2022-08-20T00:59:26;100550.00;;;21.34;62.34
60886;BME280;46736;41.654;-8.438;2022-08-20T01:01:28;100555.09;;;21.27;62.23
60886;BME280;46736;41.654;-8.438;2022-08-20T01:03:29;100557.97;;;21.22;62.77
60886;BME280;46736;41.654;-8.438;2022-08-20T01:05:30;100558.38;;;21.06;63.09
60886;BME280;46736;41.654;-8.438;2022-08-20T01:07:31;100556.72;;;20.96;63.88
60886;BME280;46736;41.654;-8.438;2022-08-20T01:09:34;100561.19;;;20.92;64.01
60886;BME280;46736;41.654;-8.438;2022-08-20T01:11:35;100563.78;;;20.97;64.28
60886;BME280;46736;41.654;-8.438;2022-08-20T01:13:38;100554.25;;;20.86;64.80
60886;BME280;46736;41.654;-8.438;2022-08-20T01:15:41;100542.25;;;20.73;64.91
60886;BME280;46736;41.654;-8.438;2022-08-20T01:17:46;100559.50;;;20.83;65.04
60886;BME280;46736;41.654;-8.438;2022-08-20T01:20:05;100555.69;;;20.84;64.53
60886;BME280;46736;41.654;-8.438;2022-08-20T01:22:07;100559.97;;;20.76;63.89
60886;BME280;46736;41.654;-8.438;2022-08-20T01:24:29;100553.81;;;20.70;64.74
60886;BME280;46736;41.654;-8.438;2022-08-20T01:26:41;100547.81;;;20.60;65.03
60886;BME280;46736;41.654;-8.438;2022-08-20T01:31:34;100549.59;;;20.64;65.64
60886;BME280;46736;41.654;-8.438;2022-08-20T01:33:35;100545.88;;;20.60;65.80
60886;BME280;46736;41.654;-8.438;2022-08-20T01:35:38;100523.03;;;20.42;65.77
60886;BME280;46736;41.654;-8.438;2022-08-20T01:37:39;100548.28;;;20.62;65.97
60886;BME280;46736;41.654;-8.438;2022-08-20T01:39:41;100547.59;;;20.56;66.35
60886;BME280;46736;41.654;-8.438;2022-08-20T01:41:51;100541.44;;;20.50;66.36
60886;BME280;46736;41.654;-8.438;2022-08-20T01:43:56;100540.94;;;20.48;66.76
60886;BME280;46736;41.654;-8.438;2022-08-20T01:45:57;100544.28;;;20.45;66.60
60886;BME280;46736;41.654;-8.438;2022-08-20T01:47:58;100540.53;;;20.41;67.31
60886;BME280;46736;41.654;-8.438;2022-08-20T01:50:02;100544.00;;;20.33;67.49
60886;BME280;46736;41.654;-8.438;2022-08-20T01:52:08;100548.56;;;20.38;67.66
60886;BME280;46736;41.654;-8.438;2022-08-20T01:54:10;100548.50;;;20.29;67.88
60886;BME280;46736;41.654;-8.438;2022-08-20T01:56:14;100549.13;;;20.26;67.86
60886;BME280;46736;41.654;-8.438;2022-08-20T01:58:16;100543.66;;;20.12;68.04
60886;BME280;46736;41.654;-8.438;2022-08-20T02:00:18;100543.16;;;20.24;68.10
60886;BME280;46736;41.654;-8.438;2022-08-20T02:02:21;100537.41;;;20.11;68.18
60886;BME280;46736;41.654;-8.438;2022-08-20T02:04:24;100552.47;;;20.09;68.34
60886;BME280;46736;41.654;-8.438;2022-08-20T02:06:28;100547.94;;;20.04;68.36
60886;BME280;46736;41.654;-8.438;2022-08-20T02:08:30;100543.59;;;20.03;68.64
60886;BME280;46736;41.654;-8.438;2022-08-20T02:10:32;100545.41;;;19.94;68.83
60886;BME280;46736;41.654;-8.438;2022-08-20T02:12:33;100556.22;;;19.99;69.38
60886;BME280;46736;41.654;-8.438;2022-08-20T02:14:38;100553.72;;;20.03;68.67
60886;BME280;46736;41.654;-8.438;2022-08-20T02:16:43;100546.84;;;19.92;68.77
60886;BME280;46736;41.654;-8.438;2022-08-20T02:18:51;100549.69;;;19.86;68.81
60886;BME280;46736;41.654;-8.438;2022-08-20T02:20:55;100552.13;;;19.74;69.22
60886;BME280;46736;41.654;-8.438;2022-08-20T02:22:58;100555.66;;;19.61;69.75
60886;BME280;46736;41.654;-8.438;2022-08-20T02:24:59;100543.53;;;19.53;69.68
60886;BME280;46736;41.654;-8.438;2022-08-20T02:27:00;100536.44;;;19.52;69.80
60886;BME280;46736;41.654;-8.438;2022-08-20T02:29:01;100546.34;;;19.48;69.96
60886;BME280;46736;41.654;-8.438;2022-08-20T02:31:04;100537.75;;;19.41;70.19
60886;BME280;46736;41.654;-8.438;2022-08-20T02:33:10;100538.78;;;19.45;70.56
60886;BME280;46736;41.654;-8.438;2022-08-20T02:35:11;100541.91;;;19.52;70.69
60886;BME280;46736;41.654;-8.438;2022-08-20T02:37:12;100535.94;;;19.64;70.29
60886;BME280;46736;41.654;-8.438;2022-08-20T02:39:16;100535.84;;;19.55;70.50
60886;BME280;46736;41.654;-8.438;2022-08-20T02:41:16;100539.38;;;19.56;70.26
60886;BME280;46736;41.654;-8.438;2022-08-20T02:43:18;100537.28;;;19.53;70.63
60886;BME280;46736;41.654;-8.438;2022-08-20T02:45:21;100531.31;;;19.51;70.51
60886;BME280;46736;41.654;-8.438;2022-08-20T02:47:22;100539.25;;;19.47;70.64
60886;BME280;46736;41.654;-8.438;2022-08-20T02:49:23;100531.50;;;19.40;70.83
60886;BME280;46736;41.654;-8.438;2022-08-20T02:51:24;100541.72;;;19.49;70.73
60886;BME280;46736;41.654;-8.438;2022-08-20T02:53:27;100542.00;;;19.47;70.96
60886;BME280;46736;41.654;-8.438;2022-08-20T02:55:29;100524.63;;;19.43;70.62
60886;BME280;46736;41.654;-8.438;2022-08-20T02:57:31;100539.47;;;19.37;70.60
60886;BME280;46736;41.654;-8.438;2022-08-20T02:59:32;100526.84;;;19.27;71.11
60886;BME280;46736;41.654;-8.438;2022-08-20T03:01:33;100541.91;;;19.24;71.21
60886;BME280;46736;41.654;-8.438;2022-08-20T03:03:34;100535.66;;;19.24;71.13
60886;BME280;46736;41.654;-8.438;2022-08-20T03:05:35;100530.09;;;19.29;71.14
60886;BME280;46736;41.654;-8.438;2022-08-20T03:07:44;100539.69;;;19.27;71.43
60886;BME280;46736;41.654;-8.438;2022-08-20T03:09:46;100535.31;;;19.26;71.50
60886;BME280;46736;41.654;-8.438;2022-08-20T03:11:50;100533.31;;;19.17;71.47
60886;BME280;46736;41.654;-8.438;2022-08-20T03:13:51;100535.22;;;19.17;71.50
60886;BME280;46736;41.654;-8.438;2022-08-20T03:15:56;100531.59;;;19.21;71.51
60886;BME280;46736;41.654;-8.438;2022-08-20T03:17:57;100534.22;;;19.27;71.04
60886;BME280;46736;41.654;-8.438;2022-08-20T03:19:59;100540.25;;;19.23;71.34
60886;BME280;46736;41.654;-8.438;2022-08-20T03:21:59;100534.59;;;19.06;71.78
60886;BME280;46736;41.654;-8.438;2022-08-20T03:24:01;100545.59;;;19.01;71.98
60886;BME280;46736;41.654;-8.438;2022-08-20T03:26:04;100549.13;;;19.01;72.12
60886;BME280;46736;41.654;-8.438;2022-08-20T03:28:05;100540.94;;;19.01;72.36
60886;BME280;46736;41.654;-8.438;2022-08-20T03:30:08;100541.03;;;18.96;71.99
60886;BME280;46736;41.654;-8.438;2022-08-20T03:32:10;100541.84;;;18.97;71.95
60886;BME280;46736;41.654;-8.438;2022-08-20T03:34:10;100538.69;;;18.90;71.97
60886;BME280;46736;41.654;-8.438;2022-08-20T03:36:11;100533.25;;;18.90;72.24
60886;BME280;46736;41.654;-8.438;2022-08-20T03:38:14;100539.00;;;18.88;72.59
60886;BME280;46736;41.654;-8.438;2022-08-20T03:40:24;100529.94;;;18.93;72.42
60886;BME280;46736;41.654;-8.438;2022-08-20T03:42:26;100513.84;;;18.77;72.55
60886;BME280;46736;41.654;-8.438;2022-08-20T03:44:26;100537.69;;;18.86;72.90
60886;BME280;46736;41.654;-8.438;2022-08-20T03:46:27;100497.00;;;18.56;72.94
60886;BME280;46736;41.654;-8.438;2022-08-20T03:48:28;100543.41;;;18.84;72.62
60886;BME280;46736;41.654;-8.438;2022-08-20T03:50:31;100531.06;;;18.73;72.57
60886;BME280;46736;41.654;-8.438;2022-08-20T03:52:31;100532.25;;;18.67;72.86
60886;BME280;46736;41.654;-8.438;2022-08-20T03:54:32;100531.44;;;18.66;72.96
60886;BME280;46736;41.654;-8.438;2022-08-20T03:56:34;100542.56;;;18.70;73.02
60886;BME280;46736;41.654;-8.438;2022-08-20T03:58:35;100532.81;;;18.64;73.13
60886;BME280;46736;41.654;-8.438;2022-08-20T04:00:48;100538.59;;;18.62;72.98
60886;BME280;46736;41.654;-8.438;2022-08-20T04:02:50;100529.97;;;18.55;73.19
60886;BME280;46736;41.654;-8.438;2022-08-20T04:04:50;100545.13;;;18.61;73.35
60886;BME280;46736;41.654;-8.438;2022-08-20T04:06:51;100532.03;;;18.63;72.96
60886;BME280;46736;41.654;-8.438;2022-08-20T04:08:52;100529.81;;;18.65;73.07
60886;BME280;46736;41.654;-8.438;2022-08-20T04:10:55;100546.16;;;18.65;73.42
60886;BME280;46736;41.654;-8.438;2022-08-20T04:12:58;100519.75;;;18.47;73.20
60886;BME280;46736;41.654;-8.438;2022-08-20T04:14:59;100533.94;;;18.63;73.26
60886;BME280;46736;41.654;-8.438;2022-08-20T04:17:06;100528.38;;;18.54;73.38
60886;BME280;46736;41.654;-8.438;2022-08-20T04:19:07;100536.06;;;18.66;72.99
60886;BME280;46736;41.654;-8.438;2022-08-20T04:21:08;100536.88;;;18.66;72.91
60886;BME280;46736;41.654;-8.438;2022-08-20T04:23:09;100538.44;;;18.53;73.34
60886;BME280;46736;41.654;-8.438;2022-08-20T04:25:10;100512.03;;;18.35;73.67
60886;BME280;46736;41.654;-8.438;2022-08-20T04:27:11;100530.59;;;18.52;73.35
60886;BME280;46736;41.654;-8.438;2022-08-20T04:29:14;100540.06;;;18.54;73.15
60886;BME280;46736;41.654;-8.438;2022-08-20T04:31:14;100545.75;;;18.39;73.55
60886;BME280;46736;41.654;-8.438;2022-08-20T04:33:19;100540.38;;;18.34;73.85
60886;BME280;46736;41.654;-8.438;2022-08-20T04:35:21;100545.69;;;18.25;74.36
60886;BME280;46736;41.654;-8.438;2022-08-20T04:37:23;100545.31;;;18.13;74.59
60886;BME280;46736;41.654;-8.438;2022-08-20T04:39:24;100550.09;;;18.21;74.39
60886;BME280;46736;41.654;-8.438;2022-08-20T04:41:26;100550.91;;;18.22;74.60
60886;BME280;46736;41.654;-8.438;2022-08-20T04:43:29;100549.22;;;18.26;74.14
60886;BME280;46736;41.654;-8.438;2022-08-20T04:45:31;100547.50;;;18.11;74.68
60886;BME280;46736;41.654;-8.438;2022-08-20T04:47:32;100561.19;;;18.06;74.99
60886;BME280;46736;41.654;-8.438;2022-08-20T04:49:36;100558.09;;;17.93;75.92
60886;BME280;46736;41.654;-8.438;2022-08-20T04:51:37;100548.09;;;17.89;75.97
60886;BME280;46736;41.654;-8.438;2022-08-20T04:53:38;100556.25;;;17.89;76.17
60886;BME280;46736;41.654;-8.438;2022-08-20T04:55:41;100553.22;;;17.90;76.26
60886;BME280;46736;41.654;-8.438;2022-08-20T04:57:43;100546.78;;;17.86;76.16
60886;BME280;46736;41.654;-8.438;2022-08-20T04:59:44;100549.44;;;17.91;76.05
60886;BME280;46736;41.654;-8.438;2022-08-20T05:01:45;100554.22;;;18.00;75.89
60886;BME280;46736;41.654;-8.438;2022-08-20T05:03:46;100552.63;;;17.93;76.03
60886;BME280;46736;41.654;-8.438;2022-08-20T05:05:51;100551.63;;;17.89;75.99
60886;BME280;46736;41.654;-8.438;2022-08-20T05:07:52;100551.34;;;17.91;76.26
60886;BME280;46736;41.654;-8.438;2022-08-20T05:09:53;100550.50;;;17.90;75.77
60886;BME280;46736;41.654;-8.438;2022-08-20T05:11:54;100560.00;;;17.93;75.95
60886;BME280;46736;41.654;-8.438;2022-08-20T05:13:55;100555.34;;;17.93;75.92
60886;BME280;46736;41.654;-8.438;2022-08-20T05:15:56;100545.00;;;17.96;75.59
60886;BME280;46736;41.654;-8.438;2022-08-20T05:18:02;100563.47;;;17.99;75.65
60886;BME280;46736;41.654;-8.438;2022-08-20T05:20:07;100550.81;;;17.89;76.04
60886;BME280;46736;41.654;-8.438;2022-08-20T05:22:08;100560.53;;;17.95;75.73
60886;BME280;46736;41.654;-8.438;2022-08-20T05:24:09;100556.84;;;17.86;75.79
60886;BME280;46736;41.654;-8.438;2022-08-20T05:26:12;100564.94;;;17.91;75.67
60886;BME280;46736;41.654;-8.438;2022-08-20T05:28:21;100568.31;;;17.78;76.33
60886;BME280;46736;41.654;-8.438;2022-08-20T05:30:22;100561.13;;;17.68;76.31
60886;BME280;46736;41.654;-8.438;2022-08-20T05:32:23;100568.16;;;17.69;76.65
60886;BME280;46736;41.654;-8.438;2022-08-20T05:34:24;100563.31;;;17.66;76.90
60886;BME280;46736;41.654;-8.438;2022-08-20T05:36:25;100563.91;;;17.63;76.76
60886;BME280;46736;41.654;-8.438;2022-08-20T05:38:27;100572.28;;;17.66;76.76
60886;BME280;46736;41.654;-8.438;2022-08-20T05:40:28;100564.63;;;17.68;76.71
60886;BME280;46736;41.654;-8.438;2022-08-20T05:42:29;100564.13;;;17.66;76.82
60886;BME280;46736;41.654;-8.438;2022-08-20T05:44:29;100562.78;;;17.64;76.66
60886;BME280;46736;41.654;-8.438;2022-08-20T05:46:30;100571.75;;;17.64;77.03
60886;BME280;46736;41.654;-8.438;2022-08-20T05:48:31;100581.00;;;17.63;76.86
60886;BME280;46736;41.654;-8.438;2022-08-20T05:50:35;100588.31;;;17.68;76.67
60886;BME280;46736;41.654;-8.438;2022-08-20T05:52:36;100579.84;;;17.69;76.36
60886;BME280;46736;41.654;-8.438;2022-08-20T05:54:37;100582.34;;;17.66;76.30
60886;BME280;46736;41.654;-8.438;2022-08-20T05:56:37;100593.16;;;17.71;76.21
60886;BME280;46736;41.654;-8.438;2022-08-20T05:58:38;100575.34;;;17.60;76.08
60886;BME280;46736;41.654;-8.438;2022-08-20T06:00:39;100594.03;;;17.66;76.32
60886;BME280;46736;41.654;-8.438;2022-08-20T06:02:40;100596.53;;;17.63;76.45
60886;BME280;46736;41.654;-8.438;2022-08-20T06:04:57;100599.25;;;17.63;76.43
60886;BME280;46736;41.654;-8.438;2022-08-20T06:07:03;100597.13;;;17.60;76.30
60886;BME280;46736;41.654;-8.438;2022-08-20T06:09:05;100594.78;;;17.48;76.87
60886;BME280;46736;41.654;-8.438;2022-08-20T06:11:06;100585.88;;;17.42;77.30
60886;BME280;46736;41.654;-8.438;2022-08-20T06:13:07;100597.72;;;17.52;76.69
60886;BME280;46736;41.654;-8.438;2022-08-20T06:15:08;100593.88;;;17.58;76.83
60886;BME280;46736;41.654;-8.438;2022-08-20T06:17:14;100597.28;;;17.68;77.17
60886;BME280;46736;41.654;-8.438;2022-08-20T06:19:18;100600.75;;;17.74;76.98
60886;BME280;46736;41.654;-8.438;2022-08-20T06:21:19;100599.22;;;17.92;76.04
60886;BME280;46736;41.654;-8.438;2022-08-20T06:23:20;100598.41;;;17.91;75.44
60886;BME280;46736;41.654;-8.438;2022-08-20T06:25:22;100583.63;;;17.74;75.94
60886;BME280;46736;41.654;-8.438;2022-08-20T06:27:23;100609.88;;;17.88;75.81
60886;BME280;46736;41.654;-8.438;2022-08-20T06:29:24;100601.25;;;17.81;76.15
60886;BME280;46736;41.654;-8.438;2022-08-20T06:31:25;100609.34;;;17.86;76.09
60886;BME280;46736;41.654;-8.438;2022-08-20T06:33:27;100591.63;;;17.89;75.86
60886;BME280;46736;41.654;-8.438;2022-08-20T06:35:28;100594.03;;;17.90;75.64
60886;BME280;46736;41.654;-8.438;2022-08-20T06:37:31;100611.88;;;18.02;75.73
60886;BME280;46736;41.654;-8.438;2022-08-20T06:39:35;100614.53;;;18.07;75.75
60886;BME280;46736;41.654;-8.438;2022-08-20T06:41:36;100615.63;;;18.06;76.06
60886;BME280;46736;41.654;-8.438;2022-08-20T06:43:37;100609.31;;;18.10;76.18
60886;BME280;46736;41.654;-8.438;2022-08-20T06:45:38;100619.50;;;18.24;75.91
60886;BME280;46736;41.654;-8.438;2022-08-20T06:47:40;100615.81;;;18.33;75.30
60886;BME280;46736;41.654;-8.438;2022-08-20T06:49:43;100622.66;;;18.50;75.16
60886;BME280;46736;41.654;-8.438;2022-08-20T06:51:44;100616.94;;;18.51;74.98
60886;BME280;46736;41.654;-8.438;2022-08-20T06:53:45;100631.50;;;18.61;74.61
60886;BME280;46736;41.654;-8.438;2022-08-20T06:55:50;100628.78;;;18.61;74.68
60886;BME280;46736;41.654;-8.438;2022-08-20T06:57:57;100627.69;;;18.62;74.69
60886;BME280;46736;41.654;-8.438;2022-08-20T06:59:58;100621.31;;;18.66;74.89
60886;BME280;46736;41.654;-8.438;2022-08-20T07:01:59;100613.41;;;18.70;75.11
60886;BME280;46736;41.654;-8.438;2022-08-20T07:04:00;100626.88;;;18.80;75.03
